createdAt,value
2019-03-01T00:01:26.616Z,224.30
2019-03-01T00:04:04.160Z,284.50
2019-03-01T00:06:38.682Z,267.83
2019-03-01T00:09:29.700Z,161.77
2019-03-01T00:12:16.481Z,158.07
2019-03-01T00:15:08.046Z,159.17
2019-03-01T00:18:01.068Z,153.80
2019-03-01T00:20:41.687Z,155.57
2019-03-01T00:23:36.126Z,159.73
2019-03-01T00:26:20.020Z,139.60
2019-03-01T00:28:57.899Z,173.13
2019-03-01T00:31:51.581Z,152.10
2019-03-01T00:34:29.299Z,147.37
2019-03-01T00:37:19.214Z,132.37
2019-03-01T00:39:51.043Z,147.80
2019-03-01T00:42:28.093Z,160.43
2019-03-01T00:44:56.990Z,194.47
2019-03-01T00:47:25.850Z,153.03
2019-03-01T00:49:54.702Z,134.10
2019-03-01T00:52:23.618Z,133.53
2019-03-01T00:54:52.471Z,137.50
2019-03-01T00:57:21.333Z,141.63
2019-03-01T00:59:50.218Z,137.97
2019-03-01T01:02:19.076Z,137.40
2019-03-01T01:04:47.921Z,123.93
2019-03-01T01:07:16.829Z,122.47
2019-03-01T01:09:45.702Z,133.87
2019-03-01T01:12:14.559Z,167.13
2019-03-01T01:14:43.488Z,148.63
2019-03-01T01:17:12.367Z,143.57
2019-03-01T01:19:45.164Z,128.80
2019-03-01T01:22:14.060Z,120.60
2019-03-01T01:24:42.923Z,103.90
2019-03-01T01:27:11.773Z,98.67
2019-03-01T01:29:40.663Z,96.23
2019-03-01T01:32:10.342Z,93.67
2019-03-01T01:34:39.196Z,94.77
2019-03-01T01:37:08.114Z,85.77
2019-03-01T01:39:36.957Z,102.17
2019-03-01T01:42:06.704Z,109.27
2019-03-01T01:44:35.586Z,93.57
2019-03-01T01:47:04.438Z,100.53
2019-03-01T01:49:33.282Z,116.20
2019-03-01T01:52:02.201Z,167.40
2019-03-01T01:54:31.044Z,153.90
2019-03-01T01:56:59.904Z,119.97
2019-03-01T01:59:28.821Z,121.90
2019-03-01T02:01:57.803Z,104.60
2019-03-01T02:04:26.805Z,91.60
2019-03-01T02:06:55.894Z,87.20
2019-03-01T02:09:25.108Z,91.83
2019-03-01T02:11:54.600Z,82.37
2019-03-01T02:14:23.606Z,83.73
2019-03-01T02:16:52.479Z,70.00
2019-03-01T02:19:21.579Z,77.67
2019-03-01T02:21:50.669Z,72.80
2019-03-01T02:24:19.566Z,80.63
2019-03-01T02:26:48.449Z,77.97
2019-03-01T02:29:19.633Z,86.53
2019-03-01T02:31:51.762Z,85.57
2019-03-01T02:34:21.584Z,80.57
2019-03-01T02:36:50.566Z,83.10
2019-03-01T02:39:19.454Z,117.57
2019-03-01T02:41:48.347Z,138.47
2019-03-01T02:44:17.540Z,100.43
2019-03-01T02:46:46.431Z,66.17
2019-03-01T02:49:15.320Z,58.00
2019-03-01T02:51:44.312Z,60.63
2019-03-01T02:54:13.307Z,62.77
2019-03-01T02:56:42.195Z,62.90
2019-03-01T02:59:11.294Z,68.90
2019-03-01T03:01:40.327Z,75.93
2019-03-01T03:04:09.378Z,66.00
2019-03-01T03:06:42.755Z,57.97
2019-03-01T03:09:12.463Z,72.77
2019-03-01T03:11:41.378Z,74.27
2019-03-01T03:14:10.371Z,87.07
2019-03-01T03:16:39.362Z,91.30
2019-03-01T03:19:08.251Z,93.67
2019-03-01T03:21:37.222Z,98.20
2019-03-01T03:24:06.233Z,96.57
2019-03-01T03:26:35.122Z,86.30
2019-03-01T03:29:04.120Z,73.37
2019-03-01T03:31:33.007Z,58.80
2019-03-01T03:34:01.843Z,62.80
2019-03-01T03:36:32.637Z,56.77
2019-03-01T03:39:01.500Z,57.07
2019-03-01T03:41:30.415Z,58.83
2019-03-01T03:43:59.403Z,57.87
2019-03-01T03:46:28.266Z,58.63
2019-03-01T03:48:57.181Z,57.77
2019-03-01T03:51:26.158Z,63.03
2019-03-01T03:53:55.169Z,66.60
2019-03-01T03:56:24.032Z,65.50
2019-03-01T03:58:53.030Z,65.60
2019-03-01T04:01:21.944Z,69.60
2019-03-01T04:03:50.812Z,59.60
2019-03-01T04:06:19.829Z,66.87
2019-03-01T04:08:48.702Z,67.20
2019-03-01T04:11:17.582Z,86.53
2019-03-01T04:13:46.572Z,79.33
2019-03-01T04:16:15.464Z,59.57
2019-03-01T04:18:44.417Z,51.70
2019-03-01T04:21:13.369Z,51.27
2019-03-01T04:23:42.260Z,52.17
2019-03-01T04:26:11.126Z,55.37
2019-03-01T04:28:40.117Z,57.70
2019-03-01T04:31:09.035Z,60.20
2019-03-01T04:33:37.923Z,58.03
2019-03-01T04:36:06.892Z,57.77
2019-03-01T04:38:36.701Z,62.43
2019-03-01T04:41:05.617Z,57.90
2019-03-01T04:43:34.610Z,60.57
2019-03-01T04:46:06.470Z,72.97
2019-03-01T04:48:35.360Z,92.73
2019-03-01T04:51:04.432Z,99.80
2019-03-01T04:53:33.345Z,97.37
2019-03-01T04:56:02.235Z,108.70
2019-03-01T04:58:31.117Z,100.43
2019-03-01T05:01:00.020Z,72.07
2019-03-01T05:03:28.907Z,65.07
2019-03-01T05:05:57.899Z,70.27
2019-03-01T05:08:26.789Z,68.57
2019-03-01T05:10:55.677Z,69.77
2019-03-01T05:13:24.670Z,65.43
2019-03-01T05:15:53.618Z,63.27
2019-03-01T05:18:22.553Z,63.07
2019-03-01T05:20:51.546Z,65.90
2019-03-01T05:23:23.800Z,64.67
2019-03-01T05:25:52.743Z,53.77
2019-03-01T05:28:21.700Z,52.03
2019-03-01T05:30:53.559Z,55.70
2019-03-01T05:33:22.428Z,60.57
2019-03-01T05:35:51.440Z,64.93
2019-03-01T05:38:22.055Z,62.70
2019-03-01T05:40:51.863Z,60.80
2019-03-01T05:43:20.878Z,57.50
2019-03-01T05:45:49.766Z,55.43
2019-03-01T05:48:18.760Z,58.77
2019-03-01T05:50:47.753Z,60.40
2019-03-01T05:53:16.642Z,62.17
2019-03-01T05:55:45.532Z,63.13
2019-03-01T05:58:29.373Z,62.90
2019-03-01T06:01:01.004Z,61.77
2019-03-01T06:03:41.692Z,69.33
2019-03-01T06:06:13.554Z,89.40
2019-03-01T06:08:51.258Z,109.40
2019-03-01T06:11:25.979Z,122.90
2019-03-01T06:14:03.371Z,85.70
2019-03-01T06:16:44.241Z,76.63
2019-03-01T06:19:18.573Z,77.40
2019-03-01T06:22:08.438Z,84.37
2019-03-01T06:24:55.350Z,80.07
2019-03-01T06:27:43.905Z,81.53
2019-03-01T06:30:21.804Z,78.73
2019-03-01T06:33:05.540Z,79.63
2019-03-01T06:35:38.424Z,85.90
2019-03-01T06:38:26.853Z,89.53
2019-03-01T06:41:26.180Z,96.50
2019-03-01T06:44:11.121Z,95.97
2019-03-01T06:47:01.135Z,98.73
2019-03-01T06:49:31.662Z,95.23
2019-03-01T06:52:00.650Z,103.50
2019-03-01T06:54:29.644Z,100.03
2019-03-01T06:56:58.531Z,98.53
2019-03-01T06:59:27.424Z,105.80
2019-03-01T07:01:56.414Z,97.07
2019-03-01T07:04:25.312Z,95.27
2019-03-01T07:06:54.172Z,86.23
2019-03-01T07:09:23.169Z,87.37
2019-03-01T07:11:52.056Z,83.37
2019-03-01T07:14:20.969Z,81.87
2019-03-01T07:16:49.961Z,81.93
2019-03-01T07:19:18.852Z,78.77
2019-03-01T07:21:47.713Z,82.10
2019-03-01T07:24:16.828Z,97.80
2019-03-01T07:26:45.906Z,94.10
2019-03-01T07:29:14.932Z,89.53
2019-03-01T07:31:43.918Z,90.27
2019-03-01T07:34:12.808Z,93.90
2019-03-01T07:36:41.697Z,101.30
2019-03-01T07:39:10.875Z,103.73
2019-03-01T07:41:39.784Z,115.30
2019-03-01T07:44:08.777Z,116.53
2019-03-01T07:46:37.746Z,108.70
2019-03-01T07:49:06.660Z,111.50
2019-03-01T07:51:36.061Z,127.60
2019-03-01T07:54:05.258Z,150.10
2019-03-01T07:56:36.956Z,162.07
2019-03-01T07:59:04.678Z,156.60
2019-03-01T08:01:33.671Z,165.00
2019-03-01T08:04:02.562Z,162.07
2019-03-01T08:06:31.425Z,149.23
2019-03-01T08:09:00.444Z,142.47
2019-03-01T08:11:31.723Z,111.07
2019-03-01T08:13:59.871Z,109.37
2019-03-01T08:16:28.963Z,102.50
2019-03-01T08:18:57.953Z,125.03
2019-03-01T08:21:26.950Z,112.80
2019-03-01T08:23:55.937Z,105.67
2019-03-01T08:26:24.934Z,105.03
2019-03-01T08:28:54.712Z,101.57
2019-03-01T08:31:24.451Z,90.00
2019-03-01T08:33:53.318Z,85.40
2019-03-01T08:36:22.231Z,69.40
2019-03-01T08:38:51.225Z,80.73
2019-03-01T08:41:21.596Z,90.03
2019-03-01T08:43:51.984Z,91.53
2019-03-01T08:46:21.169Z,94.10
2019-03-01T08:48:50.062Z,91.33
2019-03-01T08:51:18.951Z,85.67
2019-03-01T08:53:48.312Z,93.73
2019-03-01T08:56:25.832Z,90.30
2019-03-01T08:58:48.999Z,92.70
2019-03-01T09:01:21.064Z,88.97
2019-03-01T09:04:01.977Z,95.47
2019-03-01T09:06:30.930Z,95.13
2019-03-01T09:09:00.755Z,96.17
2019-03-01T09:11:30.654Z,89.73
2019-03-01T09:13:59.954Z,85.40
2019-03-01T09:16:28.945Z,82.37
2019-03-01T09:18:57.940Z,74.60
2019-03-01T09:21:26.910Z,70.47
2019-03-01T09:23:55.907Z,63.43
2019-03-01T09:26:24.757Z,64.47
2019-03-01T09:28:53.646Z,70.23
2019-03-01T09:31:22.497Z,70.40
2019-03-01T09:33:53.695Z,83.47
2019-03-01T09:36:38.778Z,85.47
2019-03-01T09:39:09.445Z,91.33
2019-03-01T09:41:40.407Z,85.97
2019-03-01T09:44:08.805Z,101.17
2019-03-01T09:46:37.668Z,94.63
2019-03-01T09:49:06.514Z,116.17
2019-03-01T09:51:35.458Z,100.10
2019-03-01T09:54:06.421Z,100.77
2019-03-01T09:56:34.985Z,118.07
2019-03-01T09:59:03.921Z,90.47
2019-03-01T10:01:32.771Z,110.33
2019-03-01T10:04:01.623Z,107.20
2019-03-01T10:06:37.779Z,108.20
2019-03-01T10:09:01.034Z,114.23
2019-03-01T10:11:29.863Z,99.97
2019-03-01T10:13:58.777Z,115.27
2019-03-01T10:16:27.631Z,111.00
2019-03-01T10:18:56.457Z,97.27
2019-03-01T10:21:26.213Z,110.47
2019-03-01T10:23:55.070Z,106.37
2019-03-01T10:26:23.910Z,97.30
2019-03-01T10:28:52.797Z,92.23
2019-03-01T10:31:21.653Z,87.73
2019-03-01T10:33:50.494Z,82.87
2019-03-01T10:36:19.389Z,81.07
2019-03-01T10:38:48.256Z,79.27
2019-03-01T10:41:17.078Z,88.47
2019-03-01T10:43:46.020Z,100.47
2019-03-01T10:46:14.867Z,97.30
2019-03-01T10:48:43.698Z,98.03
2019-03-01T10:51:12.598Z,98.87
2019-03-01T10:53:41.478Z,87.00
2019-03-01T10:56:10.333Z,79.37
2019-03-01T10:58:39.220Z,62.33
2019-03-01T11:01:09.657Z,54.37
2019-03-01T11:03:38.492Z,41.40
2019-03-01T11:06:07.617Z,41.97
2019-03-01T11:08:36.474Z,38.53
2019-03-01T11:11:05.809Z,37.53
2019-03-01T11:13:34.707Z,37.37
2019-03-01T11:16:03.559Z,37.97
2019-03-01T11:18:32.395Z,35.83
2019-03-01T11:21:01.274Z,35.27
2019-03-01T11:23:30.122Z,34.80
2019-03-01T11:25:58.967Z,33.17
2019-03-01T11:28:27.878Z,33.83
2019-03-01T11:30:56.715Z,34.67
2019-03-01T11:33:25.571Z,32.70
2019-03-01T11:35:54.466Z,34.77
2019-03-01T11:38:23.322Z,31.03
2019-03-01T11:40:53.414Z,32.90
2019-03-01T11:43:22.475Z,26.97
2019-03-01T11:45:51.316Z,28.10
2019-03-01T11:48:20.170Z,29.33
2019-03-01T11:50:49.089Z,28.07
2019-03-01T11:53:17.944Z,29.17
2019-03-01T11:55:47.683Z,27.10
2019-03-01T11:58:16.593Z,27.97
2019-03-01T12:00:52.112Z,26.77
2019-03-01T12:03:15.924Z,26.17
2019-03-01T12:05:45.108Z,26.60
2019-03-01T12:08:13.962Z,24.47
2019-03-01T12:10:42.817Z,26.57
2019-03-01T12:13:11.681Z,24.60
2019-03-01T12:15:40.482Z,25.33
2019-03-01T12:18:09.322Z,22.60
2019-03-01T12:20:38.197Z,23.27
2019-03-01T12:23:07.030Z,21.90
2019-03-01T12:25:35.889Z,23.40
2019-03-01T12:28:04.768Z,22.07
2019-03-01T12:30:33.604Z,23.27
2019-03-01T12:33:02.542Z,24.20
2019-03-01T12:35:31.456Z,23.57
2019-03-01T12:38:00.308Z,20.33
2019-03-01T12:40:30.358Z,19.63
2019-03-01T12:42:59.257Z,19.90
2019-03-01T12:45:28.106Z,20.03
2019-03-01T12:47:56.960Z,19.37
2019-03-01T12:50:25.837Z,19.00
2019-03-01T12:52:54.686Z,19.27
2019-03-01T12:55:25.689Z,18.03
2019-03-01T12:57:54.625Z,19.73
2019-03-01T13:00:28.911Z,25.00
2019-03-01T13:02:57.786Z,22.07
2019-03-01T13:05:29.255Z,21.17
2019-03-01T13:07:57.132Z,20.00
2019-03-01T13:10:30.747Z,19.13
2019-03-01T13:13:02.209Z,19.77
2019-03-01T13:15:30.093Z,18.57
2019-03-01T13:17:59.011Z,19.37
2019-03-01T13:20:29.757Z,18.37
2019-03-01T13:23:00.932Z,31.17
2019-03-01T13:25:29.491Z,17.63
2019-03-01T13:27:59.126Z,20.40
2019-03-01T13:30:28.968Z,22.03
2019-03-01T13:33:01.814Z,19.43
2019-03-01T13:35:29.327Z,18.47
2019-03-01T13:37:58.186Z,17.27
2019-03-01T13:40:27.105Z,18.07
2019-03-01T13:42:55.950Z,19.43
2019-03-01T13:45:28.602Z,19.17
2019-03-01T13:47:57.509Z,18.67
2019-03-01T13:50:26.355Z,18.90
2019-03-01T13:52:55.222Z,20.17
2019-03-01T13:55:24.102Z,22.23
2019-03-01T13:57:52.946Z,20.97
2019-03-01T14:00:22.500Z,19.43
2019-03-01T14:02:51.429Z,20.00
2019-03-01T14:05:20.382Z,19.40
2019-03-01T14:07:55.414Z,21.27
2019-03-01T14:10:25.581Z,16.57
2019-03-01T14:12:54.417Z,15.10
2019-03-01T14:15:23.468Z,14.87
2019-03-01T14:17:52.365Z,16.00
2019-03-01T14:20:22.209Z,15.00
2019-03-01T14:22:51.056Z,15.27
2019-03-01T14:25:20.133Z,20.03
2019-03-01T14:27:49.084Z,17.03
2019-03-01T14:30:19.924Z,16.80
2019-03-01T14:32:48.801Z,15.67
2019-03-01T14:35:20.154Z,15.93
2019-03-01T14:37:54.253Z,15.70
2019-03-01T14:40:22.783Z,16.50
2019-03-01T14:42:50.142Z,17.63
2019-03-01T14:45:25.656Z,17.37
2019-03-01T14:47:55.256Z,17.77
2019-03-01T14:50:25.503Z,18.10
2019-03-01T14:52:58.455Z,18.80
2019-03-01T14:55:39.366Z,15.67
2019-03-01T14:58:23.508Z,18.10
2019-03-01T15:00:58.952Z,18.77
2019-03-01T15:03:30.816Z,17.93
2019-03-01T15:05:59.745Z,19.83
2019-03-01T15:08:28.688Z,19.93
2019-03-01T15:10:59.273Z,20.23
2019-03-01T15:13:31.349Z,20.43
2019-03-01T15:16:01.066Z,18.70
2019-03-01T15:18:32.262Z,17.37
2019-03-01T15:21:02.598Z,19.50
2019-03-01T15:23:30.371Z,18.30
2019-03-01T15:25:59.253Z,18.47
2019-03-01T15:28:28.115Z,18.97
2019-03-01T15:30:57.333Z,17.87
2019-03-01T15:33:26.353Z,20.20
2019-03-01T15:35:55.198Z,21.00
2019-03-01T15:38:27.476Z,19.43
2019-03-01T15:40:54.614Z,19.43
2019-03-01T15:43:26.447Z,18.23
2019-03-01T15:45:53.946Z,19.07
2019-03-01T15:48:22.843Z,19.83
2019-03-01T15:50:51.674Z,17.47
2019-03-01T15:53:21.595Z,16.67
2019-03-01T15:55:51.072Z,18.03
2019-03-01T15:58:19.931Z,19.77
2019-03-01T16:00:48.766Z,17.37
2019-03-01T16:03:17.682Z,19.70
2019-03-01T16:05:46.541Z,20.03
2019-03-01T16:08:15.394Z,19.00
2019-03-01T16:10:44.270Z,16.03
2019-03-01T16:13:13.324Z,17.10
2019-03-01T16:15:42.258Z,17.77
2019-03-01T16:18:11.160Z,17.37
2019-03-01T16:20:40.027Z,19.50
2019-03-01T16:23:08.879Z,20.87
2019-03-01T16:25:37.878Z,21.97
2019-03-01T16:28:06.734Z,24.70
2019-03-01T16:30:35.584Z,25.60
2019-03-01T16:33:04.470Z,25.13
2019-03-01T16:35:33.322Z,28.17
2019-03-01T16:38:03.474Z,27.47
2019-03-01T16:40:32.365Z,30.93
2019-03-01T16:43:01.212Z,30.00
2019-03-01T16:45:30.049Z,30.90
2019-03-01T16:48:00.830Z,30.07
2019-03-01T16:50:29.472Z,52.70
2019-03-01T16:52:58.317Z,78.23
2019-03-01T16:55:28.937Z,92.60
2019-03-01T16:58:06.166Z,101.87
2019-03-01T17:00:28.647Z,103.00
2019-03-01T17:03:08.869Z,85.43
2019-03-01T17:05:38.758Z,124.07
2019-03-01T17:08:08.187Z,68.57
2019-03-01T17:10:37.125Z,101.03
2019-03-01T17:13:05.984Z,108.83
2019-03-01T17:15:34.836Z,82.53
2019-03-01T17:18:03.745Z,75.80
2019-03-01T17:20:37.490Z,92.23
2019-03-01T17:23:03.776Z,99.60
2019-03-01T17:25:32.921Z,118.23
2019-03-01T17:28:01.780Z,123.27
2019-03-01T17:30:30.644Z,122.47
2019-03-01T17:32:59.540Z,125.67
2019-03-01T17:35:28.394Z,130.73
2019-03-01T17:37:57.240Z,143.47
2019-03-01T17:40:29.438Z,163.90
2019-03-01T17:42:57.386Z,175.33
2019-03-01T17:45:26.996Z,149.13
2019-03-01T17:47:55.916Z,138.23
2019-03-01T17:50:24.782Z,138.63
2019-03-01T17:52:53.653Z,137.33
2019-03-01T17:55:24.528Z,164.13
2019-03-01T17:57:53.612Z,207.93
2019-03-01T18:00:30.976Z,236.43
2019-03-01T18:02:59.808Z,237.33
2019-03-01T18:05:28.657Z,218.00
2019-03-01T18:07:59.863Z,299.93
2019-03-01T18:10:28.737Z,259.97
2019-03-01T18:12:58.640Z,189.33
2019-03-01T18:15:27.519Z,172.20
2019-03-01T18:17:56.337Z,165.03
2019-03-01T18:20:25.271Z,121.00
2019-03-01T18:22:54.214Z,121.80
2019-03-01T18:25:26.227Z,141.90
2019-03-01T18:27:54.861Z,140.03
2019-03-01T18:30:29.940Z,133.87
2019-03-01T18:32:58.858Z,144.47
2019-03-01T18:35:27.744Z,124.30
2019-03-01T18:37:56.622Z,141.10
2019-03-01T18:40:25.484Z,102.37
2019-03-01T18:42:54.403Z,139.40
2019-03-01T18:45:24.857Z,191.77
2019-03-01T18:47:53.714Z,215.30
2019-03-01T18:50:31.187Z,213.43
2019-03-01T18:52:59.447Z,210.50
2019-03-01T18:55:28.298Z,218.57
2019-03-01T18:57:57.587Z,231.43
2019-03-01T19:00:44.506Z,253.70
2019-03-01T19:03:13.408Z,242.47
2019-03-01T19:05:42.253Z,268.40
2019-03-01T19:08:11.111Z,254.90
2019-03-01T19:10:40.022Z,259.43
2019-03-01T19:13:09.081Z,242.30
2019-03-01T19:15:37.942Z,238.73
2019-03-01T19:18:07.104Z,226.87
2019-03-01T19:20:42.450Z,235.23
2019-03-01T19:23:11.518Z,231.30
2019-03-01T19:25:40.336Z,266.27
2019-03-01T19:28:09.271Z,250.73
2019-03-01T19:30:38.165Z,247.60
2019-03-01T19:33:07.022Z,256.33
2019-03-01T19:35:35.868Z,200.13
2019-03-01T19:38:04.866Z,200.63
2019-03-01T19:40:33.727Z,225.90
2019-03-01T19:43:02.570Z,235.40
2019-03-01T19:45:31.468Z,196.80
2019-03-01T19:48:03.283Z,179.33
2019-03-01T19:50:30.923Z,166.60
2019-03-01T19:52:59.808Z,175.93
2019-03-01T19:55:28.665Z,188.03
2019-03-01T19:57:57.816Z,228.03
2019-03-01T20:00:27.937Z,188.90
2019-03-01T20:02:56.779Z,215.03
2019-03-01T20:05:31.831Z,228.23
2019-03-01T20:08:00.619Z,251.47
2019-03-01T20:10:29.674Z,224.47
2019-03-01T20:12:58.534Z,238.67
2019-03-01T20:15:28.948Z,243.57
2019-03-01T20:17:57.790Z,218.40
2019-03-01T20:20:29.878Z,234.77
2019-03-01T20:22:58.102Z,252.33
2019-03-01T20:25:26.955Z,240.53
2019-03-01T20:27:55.843Z,252.63
2019-03-01T20:30:30.695Z,263.20
2019-03-01T20:32:59.808Z,227.93
2019-03-01T20:35:28.677Z,168.60
2019-03-01T20:38:00.124Z,137.73
2019-03-01T20:40:28.255Z,145.57
2019-03-01T20:43:01.329Z,212.13
2019-03-01T20:45:36.278Z,182.83
2019-03-01T20:48:05.198Z,180.23
2019-03-01T20:50:34.064Z,179.73
2019-03-01T20:53:02.937Z,186.33
2019-03-01T20:55:33.076Z,167.83
2019-03-01T20:58:03.133Z,249.67
2019-03-01T21:00:33.268Z,278.07
2019-03-01T21:03:02.132Z,245.33
2019-03-01T21:05:30.991Z,162.17
2019-03-01T21:07:59.973Z,179.40
2019-03-01T21:10:30.993Z,151.17
2019-03-01T21:12:59.859Z,160.77
2019-03-01T21:15:28.742Z,154.87
2019-03-01T21:17:58.680Z,127.30
2019-03-01T21:20:27.724Z,154.17
2019-03-01T21:22:56.623Z,165.20
2019-03-01T21:25:26.186Z,161.67
2019-03-01T21:27:57.738Z,160.97
2019-03-01T21:30:32.677Z,155.27
2019-03-01T21:33:01.537Z,156.80
2019-03-01T21:35:30.352Z,146.97
2019-03-01T21:37:59.237Z,146.47
2019-03-01T21:40:28.089Z,149.00
2019-03-01T21:42:59.823Z,147.30
2019-03-01T21:45:27.594Z,127.00
2019-03-01T21:47:56.447Z,184.20
2019-03-01T21:50:25.409Z,214.07
2019-03-01T21:52:54.411Z,178.07
2019-03-01T21:55:29.796Z,198.03
2019-03-01T21:57:58.814Z,191.13
2019-03-01T22:00:30.957Z,189.03
2019-03-01T22:02:59.645Z,141.73
2019-03-01T22:05:28.548Z,132.43
2019-03-01T22:07:57.382Z,91.30
2019-03-01T22:10:26.236Z,53.77
2019-03-01T22:12:56.952Z,21.47
2019-03-01T22:15:27.073Z,22.70
2019-03-01T22:17:56.348Z,22.63
2019-03-01T22:20:25.546Z,18.70
2019-03-01T22:22:54.437Z,16.17
2019-03-01T22:25:23.605Z,15.47
2019-03-01T22:27:52.629Z,13.80
2019-03-01T22:30:34.213Z,20.70
2019-03-01T22:33:03.206Z,16.50
2019-03-01T22:35:32.096Z,15.23
2019-03-01T22:38:04.523Z,16.70
2019-03-01T22:40:31.621Z,24.53
2019-03-01T22:43:00.514Z,28.67
2019-03-01T22:45:29.401Z,51.60
2019-03-01T22:47:58.367Z,54.20
2019-03-01T22:50:27.284Z,52.50
2019-03-01T22:52:56.171Z,48.63
2019-03-01T22:55:25.164Z,50.20
2019-03-01T22:57:54.057Z,58.27
2019-03-01T23:00:30.180Z,53.50
2019-03-01T23:02:59.083Z,55.13
2019-03-01T23:05:28.099Z,62.13
2019-03-01T23:08:00.206Z,60.57
2019-03-01T23:10:28.310Z,60.63
2019-03-01T23:12:57.225Z,59.23
2019-03-01T23:15:26.220Z,63.90
2019-03-01T23:17:55.108Z,64.50
2019-03-01T23:20:26.678Z,64.50
2019-03-01T23:22:54.630Z,70.53
2019-03-01T23:25:23.519Z,64.90
2019-03-01T23:27:52.411Z,64.73
2019-03-01T23:30:21.381Z,145.03
2019-03-01T23:32:52.637Z,88.03
2019-03-01T23:35:20.821Z,84.47
2019-03-01T23:37:49.827Z,75.53
2019-03-01T23:40:18.704Z,74.60
2019-03-01T23:42:47.797Z,82.87
2019-03-01T23:45:17.456Z,83.73
2019-03-01T23:47:47.421Z,88.23
2019-03-01T23:50:16.314Z,92.00
2019-03-01T23:52:45.305Z,99.23
2019-03-01T23:55:15.604Z,101.00
2019-03-01T23:57:44.704Z,102.97
